Overview Statistics Trail Chart Weather Telemetry Raw packets
 

This is the latest recevied weather packets stored in our database for station/object AG1T-20. If no packets are shown the sender has not sent any weather packets the latest 10 day(s).

<< 13 14 15 16 17 18 19 >>
Time Temp. Humidity Pressure Rain* Wind** Luminosity Snow
1788399005 20.56° C 31% 1022.1 hPa 0 mm - 9 W/m² -
1788398407 20.56° C 32% 1021.9 hPa 0 mm - 17 W/m² -
1788397804 21.67° C 27% 1022 hPa 0 mm - 45 W/m² -
1788397204 22.22° C 34% 1021.5 hPa 0 mm - 60 W/m² -
1788396604 22.22° C 31% 1021.1 hPa 0 mm - 59 W/m² -
1788396004 22.78° C 29% 1020.8 hPa 0 mm - 69 W/m² -
1788395404 23.89° C 26% 1020.4 hPa 0 mm - 95 W/m² -
1788394804 23.89° C 29% 1020.1 hPa 0 mm - 104 W/m² -
1788394204 23.89° C 27% 1020.2 hPa 0 mm - 130 W/m² -
1788393604 24.44° C 31% 1020 hPa 0 mm - 136 W/m² -
1788393004 25° C 26% 1019.9 hPa 0 mm - 135 W/m² -
1788392404 26.11° C 24% 1019.1 hPa 0 mm - 176 W/m² -
1788391804 26.67° C 21% 1019.2 hPa 0 mm - 187 W/m² -
1788391204 26.11° C 24% 1019.3 hPa 0 mm - 207 W/m² -
1788390604 26.11° C 23% 1019.3 hPa 0 mm - 164 W/m² -
1788390004 26.67° C 22% 1018.7 hPa 0 mm - 213 W/m² -
1788389404 26.67° C 23% 1018.7 hPa 0 mm - 249 W/m² -
1788388805 27.22° C 21% 1018.7 hPa 0 mm - 245 W/m² -
1788388204 26.67° C 24% 1018.9 hPa 0 mm - 277 W/m² -
1788387604 26.11° C 23% 1019.1 hPa 0 mm - 402 W/m² -
1788387004 26.67° C 24% 1019.2 hPa 0 mm - 368 W/m² -
1788386404 26.67° C 23% 1019.2 hPa 0 mm - 411 W/m² -
1788385804 26.11° C 24% 1019.4 hPa 0 mm - 407 W/m² -
1788385204 25.56° C 28% 1019.7 hPa 0 mm - 340 W/m² -
1788384604 26.67° C 24% 1019.2 hPa 0 mm - 482 W/m² -

* Rain latest hour (hover to see other rain measurements)
** Current wind speed in m/s (hover to see current wind gust speed)